createdAt,value
2023-07-17T00:01:53.686Z,19.20
2023-07-17T00:04:21.912Z,18.90
2023-07-17T00:06:51.460Z,18.80
2023-07-17T00:09:20.038Z,18.80
2023-07-17T00:11:48.178Z,18.80
2023-07-17T00:14:16.784Z,18.90
2023-07-17T00:16:45.117Z,19.00
2023-07-17T00:19:13.314Z,19.00
2023-07-17T00:21:41.752Z,19.10
2023-07-17T00:24:11.263Z,19.00
2023-07-17T00:26:39.925Z,19.10
2023-07-17T00:29:25.616Z,19.10
2023-07-17T00:31:54.546Z,19.00
2023-07-17T00:34:23.244Z,18.90
2023-07-17T00:36:52.239Z,18.80
2023-07-17T00:39:21.815Z,18.70
2023-07-17T00:41:53.138Z,18.60
2023-07-17T00:44:21.295Z,18.60
2023-07-17T00:46:53.764Z,18.50
2023-07-17T00:49:25.249Z,18.50
2023-07-17T00:51:54.375Z,18.50
2023-07-17T00:54:24.144Z,18.30
2023-07-17T00:56:53.497Z,18.10
2023-07-17T00:59:22.900Z,18.00
2023-07-17T01:01:51.637Z,17.80
2023-07-17T01:04:19.864Z,17.60
2023-07-17T01:06:48.338Z,17.80
2023-07-17T01:09:19.078Z,18.00
2023-07-17T01:11:49.492Z,18.20
2023-07-17T01:14:18.283Z,18.20
2023-07-17T01:16:48.222Z,18.20
2023-07-17T01:19:17.112Z,18.20
2023-07-17T01:21:53.072Z,18.10
2023-07-17T01:24:23.277Z,18.10
2023-07-17T01:26:51.560Z,18.10
2023-07-17T01:29:19.853Z,18.10
2023-07-17T01:31:48.692Z,18.00
2023-07-17T01:34:16.867Z,18.00
2023-07-17T01:36:44.456Z,18.00
2023-07-17T01:39:12.893Z,18.00
2023-07-17T01:41:45.845Z,18.00
2023-07-17T01:44:14.389Z,17.90
2023-07-17T01:46:42.566Z,17.90
2023-07-17T01:49:10.983Z,18.00
2023-07-17T01:51:39.601Z,18.00
2023-07-17T01:54:07.784Z,18.00
2023-07-17T01:56:36.219Z,18.00
2023-07-17T01:59:05.812Z,17.90
2023-07-17T02:01:34.938Z,18.00
2023-07-17T02:04:03.297Z,18.00
2023-07-17T02:06:31.749Z,18.00
2023-07-17T02:08:59.893Z,18.10
2023-07-17T02:11:30.443Z,18.10
2023-07-17T02:13:58.785Z,18.20
2023-07-17T02:16:28.714Z,18.20
2023-07-17T02:18:56.889Z,18.20
2023-07-17T02:21:25.067Z,18.20
2023-07-17T02:23:54.713Z,18.20
2023-07-17T02:26:23.063Z,18.10
2023-07-17T02:28:51.629Z,18.10
2023-07-17T02:31:20.156Z,18.10
2023-07-17T02:33:50.448Z,18.10
2023-07-17T02:36:18.594Z,18.10
2023-07-17T02:38:47.418Z,18.00
2023-07-17T02:41:15.878Z,18.00
2023-07-17T02:43:44.134Z,17.90
2023-07-17T02:46:12.659Z,17.80
2023-07-17T02:48:40.866Z,17.80
2023-07-17T02:51:10.691Z,17.60
2023-07-17T02:53:38.823Z,17.60
2023-07-17T02:56:07.509Z,17.60
2023-07-17T02:58:35.654Z,17.60
2023-07-17T03:01:03.831Z,17.50
2023-07-17T03:03:32.285Z,17.50
2023-07-17T03:06:00.720Z,17.50
2023-07-17T03:08:30.273Z,17.40
2023-07-17T03:10:58.430Z,17.30
2023-07-17T03:13:26.667Z,17.30
2023-07-17T03:15:57.474Z,17.30
2023-07-17T03:18:25.618Z,17.20
2023-07-17T03:20:54.406Z,17.10
2023-07-17T03:23:23.108Z,16.90
2023-07-17T03:25:52.619Z,17.10
2023-07-17T03:28:20.739Z,17.20
2023-07-17T03:30:48.929Z,17.10
2023-07-17T03:33:17.162Z,17.20
2023-07-17T03:35:45.739Z,17.20
2023-07-17T03:38:13.872Z,17.20
2023-07-17T03:40:42.314Z,17.10
2023-07-17T03:43:11.809Z,17.20
2023-07-17T03:45:40.254Z,16.80
2023-07-17T03:48:08.461Z,16.70
2023-07-17T03:50:38.302Z,17.00
2023-07-17T03:53:06.725Z,16.90
2023-07-17T03:55:34.919Z,16.90
2023-07-17T03:58:04.940Z,17.00
2023-07-17T04:00:34.459Z,17.00
2023-07-17T04:03:04.076Z,17.10
2023-07-17T04:05:32.701Z,17.10
2023-07-17T04:08:00.833Z,17.00
2023-07-17T04:10:30.028Z,17.00
2023-07-17T04:12:58.497Z,17.10
2023-07-17T04:15:26.741Z,17.20
2023-07-17T04:17:56.534Z,17.20
2023-07-17T04:20:24.732Z,17.20
2023-07-17T04:22:52.934Z,17.20
2023-07-17T04:25:21.136Z,17.30
2023-07-17T04:27:49.596Z,17.30
2023-07-17T04:30:18.251Z,17.60
2023-07-17T04:32:46.441Z,17.60
2023-07-17T04:35:16.560Z,17.60
2023-07-17T04:37:44.693Z,17.70
2023-07-17T04:40:14.140Z,17.80
2023-07-17T04:42:42.282Z,17.80
2023-07-17T04:45:13.006Z,17.80
2023-07-17T04:47:41.481Z,18.00
2023-07-17T04:50:11.257Z,18.20
2023-07-17T04:52:40.767Z,18.20
2023-07-17T04:55:09.950Z,18.20
2023-07-17T04:57:38.517Z,18.30
2023-07-17T05:00:10.425Z,18.30
2023-07-17T05:02:38.980Z,18.60
2023-07-17T05:05:07.851Z,19.20
2023-07-17T05:07:36.266Z,19.40
2023-07-17T05:10:06.486Z,19.50
2023-07-17T05:12:34.959Z,19.60
2023-07-17T05:15:03.166Z,19.40
2023-07-17T05:17:31.415Z,19.60
2023-07-17T05:19:59.616Z,20.20
2023-07-17T05:22:28.273Z,20.20
2023-07-17T05:24:56.816Z,20.30
2023-07-17T05:27:26.375Z,20.50
2023-07-17T05:29:54.530Z,21.70
2023-07-17T05:32:23.055Z,22.00
2023-07-17T05:34:51.912Z,22.50
2023-07-17T05:37:20.419Z,22.20
2023-07-17T05:39:48.583Z,22.00
2023-07-17T05:42:17.168Z,21.70
2023-07-17T05:44:46.687Z,22.20
2023-07-17T05:47:14.841Z,22.90
2023-07-17T05:49:42.972Z,23.20
2023-07-17T05:52:11.509Z,22.70
2023-07-17T05:54:39.706Z,24.00
2023-07-17T05:57:09.052Z,23.40
2023-07-17T05:59:37.278Z,24.00
2023-07-17T06:02:07.481Z,23.50
2023-07-17T06:04:36.433Z,23.20
2023-07-17T06:07:05.663Z,23.20
2023-07-17T06:09:36.470Z,23.60
2023-07-17T06:12:07.338Z,24.80
2023-07-17T06:14:35.520Z,24.90
2023-07-17T06:17:04.179Z,25.70
2023-07-17T06:19:34.035Z,25.00
2023-07-17T06:22:02.203Z,25.20
2023-07-17T06:24:30.669Z,25.50
2023-07-17T06:27:00.713Z,24.60
2023-07-17T06:29:29.627Z,24.60
2023-07-17T06:31:57.819Z,24.90
2023-07-17T06:34:26.086Z,24.10
2023-07-17T06:36:55.933Z,25.00
2023-07-17T06:39:24.141Z,24.50
2023-07-17T06:41:52.345Z,24.20
2023-07-17T06:44:20.507Z,24.50
2023-07-17T06:46:49.026Z,25.20
2023-07-17T06:49:17.337Z,25.10
2023-07-17T06:51:45.521Z,25.50
2023-07-17T06:54:15.073Z,25.80
2023-07-17T06:56:43.212Z,25.90
2023-07-17T06:59:11.414Z,25.80
2023-07-17T07:01:39.656Z,25.60
2023-07-17T07:04:07.884Z,25.10
2023-07-17T07:06:36.103Z,25.00
2023-07-17T07:09:04.453Z,25.20
2023-07-17T07:11:34.238Z,25.20
2023-07-17T07:14:02.423Z,25.60
2023-07-17T07:16:30.955Z,26.40
2023-07-17T07:18:59.469Z,26.10
2023-07-17T07:21:27.979Z,26.50
2023-07-17T07:23:56.160Z,25.90
2023-07-17T07:26:24.314Z,26.20
2023-07-17T07:28:54.231Z,26.50
2023-07-17T07:31:22.417Z,26.80
2023-07-17T07:33:51.020Z,26.70
2023-07-17T07:36:19.527Z,26.60
2023-07-17T07:38:48.385Z,26.80
2023-07-17T07:41:18.922Z,26.40
2023-07-17T07:43:47.383Z,26.40
2023-07-17T07:46:17.359Z,27.60
2023-07-17T07:48:45.842Z,27.00
2023-07-17T07:51:16.891Z,26.90
2023-07-17T07:53:45.352Z,27.40
2023-07-17T07:56:13.517Z,27.60
2023-07-17T07:58:42.105Z,28.10
2023-07-17T08:01:10.292Z,26.80
2023-07-17T08:03:41.655Z,27.10
2023-07-17T08:06:10.258Z,27.30
2023-07-17T08:08:38.677Z,27.10
2023-07-17T08:11:06.920Z,27.10
2023-07-17T08:13:35.412Z,26.80
2023-07-17T08:16:03.603Z,27.30
2023-07-17T08:18:31.821Z,26.70
2023-07-17T08:21:01.678Z,27.00
2023-07-17T08:23:30.491Z,27.10
2023-07-17T08:25:58.697Z,27.30
2023-07-17T08:28:26.863Z,27.40
2023-07-17T08:30:55.644Z,27.60
2023-07-17T08:33:24.156Z,26.80
2023-07-17T08:35:53.256Z,26.80
2023-07-17T08:38:23.069Z,26.70
2023-07-17T08:40:54.430Z,26.60
2023-07-17T08:43:23.780Z,26.60
2023-07-17T08:45:53.926Z,26.10
2023-07-17T08:48:23.092Z,26.70
2023-07-17T08:50:53.055Z,26.80
2023-07-17T08:53:25.697Z,27.10
2023-07-17T08:55:56.553Z,26.70
2023-07-17T08:58:26.188Z,27.00
2023-07-17T09:00:54.995Z,27.10
2023-07-17T09:03:23.322Z,27.00
2023-07-17T09:05:52.040Z,27.50
2023-07-17T09:08:20.231Z,27.60
2023-07-17T09:11:03.199Z,27.80
2023-07-17T09:13:39.134Z,27.80
2023-07-17T09:16:18.425Z,27.80
2023-07-17T09:18:47.265Z,28.10
2023-07-17T09:21:16.363Z,28.80
2023-07-17T09:23:47.706Z,28.60
2023-07-17T09:26:18.909Z,27.80
2023-07-17T09:28:49.955Z,28.70
2023-07-17T09:31:25.290Z,28.90
2023-07-17T09:33:53.739Z,29.00
2023-07-17T09:36:22.593Z,28.50
2023-07-17T09:38:54.489Z,28.50
2023-07-17T09:41:25.742Z,28.80
2023-07-17T09:43:55.481Z,29.40
2023-07-17T09:46:23.736Z,29.00
2023-07-17T09:48:54.805Z,29.00
2023-07-17T09:51:23.423Z,29.30
2023-07-17T09:53:52.644Z,29.10
2023-07-17T09:56:24.671Z,29.00
2023-07-17T09:58:54.899Z,29.20
2023-07-17T10:01:28.473Z,29.30
2023-07-17T10:03:56.908Z,29.40
2023-07-17T10:06:25.085Z,28.60
2023-07-17T10:08:54.628Z,29.10
2023-07-17T10:11:24.882Z,28.70
2023-07-17T10:13:53.551Z,29.30
2023-07-17T10:16:22.802Z,29.20
2023-07-17T10:18:56.055Z,29.10
2023-07-17T10:21:25.016Z,28.40
2023-07-17T10:23:53.333Z,28.50
2023-07-17T10:26:23.143Z,28.00
2023-07-17T10:28:55.985Z,28.60
2023-07-17T10:31:26.556Z,29.00
2023-07-17T10:33:57.050Z,29.00
2023-07-17T10:36:41.524Z,29.00
2023-07-17T10:39:13.613Z,28.70
2023-07-17T10:41:42.203Z,29.40
2023-07-17T10:44:22.287Z,29.40
2023-07-17T10:46:50.569Z,29.50
2023-07-17T10:49:20.079Z,29.20
2023-07-17T10:51:50.608Z,28.60
2023-07-17T10:54:20.896Z,28.00
2023-07-17T10:56:50.966Z,28.30
2023-07-17T10:59:21.134Z,27.90
2023-07-17T11:01:49.439Z,27.30
2023-07-17T11:04:20.169Z,27.30
2023-07-17T11:06:48.889Z,26.70
2023-07-17T11:09:17.650Z,26.30
2023-07-17T11:11:47.370Z,26.40
2023-07-17T11:14:15.661Z,26.30
2023-07-17T11:16:47.264Z,26.70
2023-07-17T11:19:15.411Z,27.50
2023-07-17T11:21:43.561Z,27.70
2023-07-17T11:24:12.018Z,28.00
2023-07-17T11:26:40.891Z,27.50
2023-07-17T11:29:09.053Z,27.30
2023-07-17T11:31:37.511Z,26.90
2023-07-17T11:34:10.681Z,26.80
2023-07-17T11:36:43.512Z,27.50
2023-07-17T11:39:12.970Z,28.10
2023-07-17T11:41:48.872Z,28.30
2023-07-17T11:44:18.333Z,28.10
2023-07-17T11:46:46.519Z,28.00
2023-07-17T11:49:16.410Z,27.90
2023-07-17T11:51:48.078Z,28.10
2023-07-17T11:54:16.475Z,28.40
2023-07-17T11:56:46.167Z,28.90
2023-07-17T11:59:20.948Z,29.10
2023-07-17T12:01:50.306Z,29.10
2023-07-17T12:04:23.350Z,28.90
2023-07-17T12:06:54.358Z,28.70
2023-07-17T12:09:22.923Z,28.70
2023-07-17T12:11:51.603Z,29.10
2023-07-17T12:14:20.366Z,29.10
2023-07-17T12:16:49.013Z,28.90
2023-07-17T12:19:17.721Z,28.60
2023-07-17T12:21:47.252Z,28.70
2023-07-17T12:24:16.231Z,29.30
2023-07-17T12:26:44.409Z,29.40
2023-07-17T12:29:12.606Z,29.00
2023-07-17T12:31:40.862Z,28.80
2023-07-17T12:34:11.460Z,28.30
2023-07-17T12:36:39.703Z,28.40
2023-07-17T12:39:16.466Z,28.70
2023-07-17T12:41:45.450Z,28.40
2023-07-17T12:44:13.822Z,28.60
2023-07-17T12:46:42.042Z,28.30
2023-07-17T12:49:10.574Z,28.20
2023-07-17T12:51:38.702Z,28.30
2023-07-17T12:54:07.242Z,28.30
2023-07-17T12:56:37.119Z,28.30
2023-07-17T12:59:05.263Z,28.00
2023-07-17T13:01:35.404Z,28.50
2023-07-17T13:04:04.593Z,28.70
2023-07-17T13:06:32.806Z,29.10
2023-07-17T13:09:01.193Z,29.30
2023-07-17T13:11:29.350Z,28.60
2023-07-17T13:13:58.898Z,29.20
2023-07-17T13:16:27.391Z,29.20
2023-07-17T13:18:56.700Z,29.50
2023-07-17T13:21:25.170Z,29.10
2023-07-17T13:23:53.711Z,28.80
2023-07-17T13:26:25.807Z,28.50
2023-07-17T13:28:53.940Z,28.50
2023-07-17T13:31:24.129Z,28.90
2023-07-17T13:33:52.498Z,29.10
2023-07-17T13:36:20.676Z,28.90
2023-07-17T13:38:49.798Z,28.90
2023-07-17T13:41:22.264Z,28.60
2023-07-17T13:43:50.596Z,28.40
2023-07-17T13:46:19.261Z,28.00
2023-07-17T13:48:49.183Z,27.90
2023-07-17T13:51:17.583Z,27.80
2023-07-17T13:53:46.287Z,28.30
2023-07-17T13:57:02.326Z,28.60
2023-07-17T13:59:03.917Z,28.80
2023-07-17T14:01:32.576Z,28.30
2023-07-17T14:04:04.266Z,28.40
2023-07-17T14:06:32.906Z,28.10
2023-07-17T14:09:01.126Z,28.30
2023-07-17T14:11:30.206Z,28.30
2023-07-17T14:14:01.777Z,28.70
2023-07-17T14:16:30.426Z,28.80
2023-07-17T14:18:58.742Z,28.30
2023-07-17T14:21:28.639Z,28.00
2023-07-17T14:23:55.807Z,28.50
2023-07-17T14:26:24.466Z,28.50
2023-07-17T14:28:52.919Z,28.20
2023-07-17T14:31:21.360Z,28.00
2023-07-17T14:33:49.554Z,28.20
2023-07-17T14:36:18.018Z,28.50
2023-07-17T14:38:47.757Z,28.40
2023-07-17T14:41:16.484Z,28.30
2023-07-17T14:43:44.627Z,27.90
2023-07-17T14:46:13.265Z,28.40
2023-07-17T14:48:41.491Z,28.60
2023-07-17T14:51:09.954Z,28.20
2023-07-17T14:53:38.395Z,27.70
2023-07-17T14:56:08.057Z,27.30
2023-07-17T14:58:36.224Z,26.80
2023-07-17T15:01:05.027Z,26.70
2023-07-17T15:03:33.282Z,27.50
2023-07-17T15:06:01.789Z,28.10
2023-07-17T15:08:30.428Z,27.30
2023-07-17T15:10:58.747Z,26.50
2023-07-17T15:13:29.365Z,26.80
2023-07-17T15:15:57.795Z,27.40
2023-07-17T15:18:26.339Z,26.80
2023-07-17T15:20:54.609Z,26.60
2023-07-17T15:23:22.858Z,26.50
2023-07-17T15:25:50.997Z,27.00
2023-07-17T15:28:19.165Z,26.60
2023-07-17T15:30:49.194Z,27.00
2023-07-17T15:33:17.484Z,27.40
2023-07-17T15:35:45.610Z,27.00
2023-07-17T15:38:14.417Z,26.60
2023-07-17T15:40:42.573Z,26.70
2023-07-17T15:43:11.529Z,26.40
2023-07-17T15:45:40.076Z,26.90
2023-07-17T15:48:12.852Z,26.70
2023-07-17T15:50:41.842Z,26.50
2023-07-17T15:53:09.988Z,26.80
2023-07-17T15:55:38.216Z,27.20
2023-07-17T15:58:06.488Z,26.70
2023-07-17T16:00:34.753Z,26.70
2023-07-17T16:03:02.937Z,26.70
2023-07-17T16:05:32.606Z,26.70
2023-07-17T16:08:00.882Z,26.80
2023-07-17T16:10:30.910Z,26.90
2023-07-17T16:12:59.094Z,26.50
2023-07-17T16:15:27.424Z,26.70
2023-07-17T16:17:55.604Z,26.60
2023-07-17T16:20:23.849Z,26.10
2023-07-17T16:22:53.785Z,26.40
2023-07-17T16:25:22.611Z,26.40
2023-07-17T16:27:50.773Z,26.60
2023-07-17T16:30:19.272Z,26.30
2023-07-17T16:32:47.505Z,26.00
2023-07-17T16:35:16.050Z,26.40
2023-07-17T16:37:44.180Z,26.50
2023-07-17T16:40:13.888Z,26.20
2023-07-17T16:42:42.508Z,25.90
2023-07-17T16:45:11.430Z,26.10
2023-07-17T16:47:39.670Z,25.60
2023-07-17T16:50:09.327Z,26.00
2023-07-17T16:52:37.761Z,25.90
2023-07-17T16:55:06.489Z,25.80
2023-07-17T16:57:36.081Z,25.80
2023-07-17T17:00:06.322Z,25.60
2023-07-17T17:02:35.264Z,25.30
2023-07-17T17:05:04.589Z,25.20
2023-07-17T17:07:33.190Z,25.00
2023-07-17T17:10:01.336Z,24.80
2023-07-17T17:12:29.502Z,24.40
2023-07-17T17:14:59.336Z,24.70
2023-07-17T17:17:27.576Z,24.30
2023-07-17T17:19:55.933Z,24.20
2023-07-17T17:22:24.380Z,24.10
2023-07-17T17:24:52.546Z,23.80
2023-07-17T17:27:20.790Z,23.90
2023-07-17T17:29:48.944Z,23.80
2023-07-17T17:32:18.517Z,23.40
2023-07-17T17:34:46.939Z,23.50
2023-07-17T17:37:15.139Z,23.60
2023-07-17T17:39:43.304Z,23.80
2023-07-17T17:42:11.508Z,23.40
2023-07-17T17:44:39.691Z,22.90
2023-07-17T17:47:08.048Z,23.30
2023-07-17T17:49:37.652Z,22.70
2023-07-17T17:52:06.746Z,23.10
2023-07-17T17:54:34.900Z,22.90
2023-07-17T17:57:03.129Z,22.90
2023-07-17T17:59:31.334Z,22.80
2023-07-17T18:02:00.574Z,22.80
2023-07-17T18:04:29.032Z,22.60
2023-07-17T18:06:58.767Z,22.70
2023-07-17T18:09:26.971Z,22.60
2023-07-17T18:11:55.163Z,22.30
2023-07-17T18:14:23.376Z,22.40
2023-07-17T18:16:53.524Z,22.60
2023-07-17T18:19:28.004Z,22.30
2023-07-17T18:21:56.179Z,22.30
2023-07-17T18:24:25.726Z,22.30
2023-07-17T18:26:53.908Z,22.00
2023-07-17T18:29:22.116Z,21.80
2023-07-17T18:31:50.481Z,21.90
2023-07-17T18:34:19.458Z,21.70
2023-07-17T18:36:47.814Z,21.50
2023-07-17T18:39:15.991Z,21.30
2023-07-17T18:41:45.812Z,21.50
2023-07-17T18:44:13.969Z,21.10
2023-07-17T18:46:42.294Z,21.20
2023-07-17T18:49:10.697Z,20.80
2023-07-17T18:51:39.560Z,20.60
2023-07-17T18:54:08.581Z,20.40
2023-07-17T18:56:38.244Z,20.10
2023-07-17T18:59:17.632Z,19.60
2023-07-17T19:01:46.034Z,19.10
2023-07-17T19:04:14.708Z,19.10
2023-07-17T19:06:43.241Z,19.20
2023-07-17T19:09:11.451Z,19.60
2023-07-17T19:11:39.581Z,19.60
2023-07-17T19:14:08.019Z,19.70
2023-07-17T19:16:37.793Z,19.90
2023-07-17T19:19:06.918Z,19.90
2023-07-17T19:21:37.527Z,19.80
2023-07-17T19:24:07.172Z,20.00
2023-07-17T19:26:35.461Z,20.00
2023-07-17T19:29:06.064Z,19.80
2023-07-17T19:31:34.575Z,19.70
2023-07-17T19:34:04.328Z,19.70
2023-07-17T19:36:34.744Z,19.80
2023-07-17T19:39:05.273Z,19.50
2023-07-17T19:41:33.464Z,19.40
2023-07-17T19:44:01.696Z,19.30
2023-07-17T19:46:30.539Z,19.50
2023-07-17T19:48:58.997Z,19.70
2023-07-17T19:51:28.606Z,19.30
2023-07-17T19:53:56.867Z,18.90
2023-07-17T19:56:25.291Z,19.30
2023-07-17T19:58:53.996Z,19.30
2023-07-17T20:01:23.461Z,19.10
2023-07-17T20:03:52.312Z,18.90
2023-07-17T20:06:22.770Z,18.90
2023-07-17T20:08:56.465Z,18.80
2023-07-17T20:11:24.645Z,18.60
2023-07-17T20:13:53.061Z,18.60
2023-07-17T20:16:21.361Z,18.50
2023-07-17T20:18:49.596Z,18.20
2023-07-17T20:21:18.058Z,18.30
2023-07-17T20:23:46.661Z,18.40
2023-07-17T20:26:17.701Z,18.60
2023-07-17T20:28:47.606Z,18.50
2023-07-17T20:31:15.959Z,18.30
2023-07-17T20:33:45.195Z,18.30
2023-07-17T20:36:13.343Z,18.30
2023-07-17T20:38:41.897Z,17.90
2023-07-17T20:41:10.329Z,17.80
2023-07-17T20:43:39.841Z,18.00
2023-07-17T20:46:08.817Z,18.00
2023-07-17T20:48:37.008Z,17.80
2023-07-17T20:51:07.870Z,17.70
2023-07-17T20:53:36.362Z,17.40
2023-07-17T20:56:04.710Z,17.40
2023-07-17T20:58:33.834Z,17.50
2023-07-17T21:01:06.994Z,17.60
2023-07-17T21:03:35.732Z,17.60
2023-07-17T21:06:04.538Z,17.60
2023-07-17T21:08:33.212Z,17.50
2023-07-17T21:11:01.974Z,17.50
2023-07-17T21:13:32.172Z,17.30
2023-07-17T21:16:01.315Z,17.30
2023-07-17T21:18:31.077Z,17.20
2023-07-17T21:20:59.665Z,17.20
2023-07-17T21:23:27.860Z,17.10
2023-07-17T21:25:56.433Z,17.20
2023-07-17T21:28:24.572Z,17.10
2023-07-17T21:30:53.151Z,16.80
2023-07-17T21:33:21.292Z,16.70
2023-07-17T21:35:52.054Z,16.70
2023-07-17T21:38:21.133Z,16.80
2023-07-17T21:40:49.285Z,16.80
2023-07-17T21:43:17.484Z,16.80
2023-07-17T21:45:49.395Z,16.90
2023-07-17T21:48:18.085Z,16.70
2023-07-17T21:50:46.324Z,16.60
2023-07-17T21:53:16.034Z,16.60
2023-07-17T21:55:45.159Z,16.60
2023-07-17T21:58:13.717Z,16.50
2023-07-17T22:00:42.020Z,16.40
2023-07-17T22:03:10.882Z,16.40
2023-07-17T22:05:39.132Z,16.40
2023-07-17T22:08:07.610Z,16.20
2023-07-17T22:10:37.639Z,16.30
2023-07-17T22:13:05.972Z,16.20
2023-07-17T22:15:34.195Z,16.20
2023-07-17T22:18:12.472Z,16.30
2023-07-17T22:20:47.912Z,16.40
2023-07-17T22:23:16.440Z,16.20
2023-07-17T22:25:45.973Z,16.10
2023-07-17T22:28:14.404Z,16.00
2023-07-17T22:30:43.227Z,15.90
2023-07-17T22:33:11.493Z,15.70
2023-07-17T22:35:39.953Z,15.60
2023-07-17T22:38:08.078Z,15.50
2023-07-17T22:40:36.530Z,15.60
2023-07-17T22:43:06.056Z,15.50
2023-07-17T22:45:34.249Z,15.50
2023-07-17T22:48:02.434Z,15.60
2023-07-17T22:50:30.638Z,15.50
2023-07-17T22:52:58.780Z,15.40
2023-07-17T22:55:27.054Z,15.40
2023-07-17T22:57:55.625Z,15.50
2023-07-17T23:00:25.177Z,15.50
2023-07-17T23:02:53.421Z,15.30
2023-07-17T23:05:21.932Z,15.40
2023-07-17T23:07:50.112Z,15.40
2023-07-17T23:10:18.428Z,15.30
2023-07-17T23:12:47.359Z,15.20
2023-07-17T23:15:15.608Z,15.30
2023-07-17T23:17:48.678Z,15.30
2023-07-17T23:20:18.295Z,15.20
2023-07-17T23:22:47.129Z,15.30
2023-07-17T23:25:15.341Z,15.20
2023-07-17T23:27:43.776Z,15.20
2023-07-17T23:30:12.398Z,15.10
2023-07-17T23:32:41.461Z,15.20
2023-07-17T23:35:11.505Z,15.00
2023-07-17T23:37:39.731Z,15.00
2023-07-17T23:40:10.124Z,15.10
2023-07-17T23:42:42.133Z,15.00
2023-07-17T23:45:13.060Z,15.00
2023-07-17T23:47:41.766Z,15.00
2023-07-17T23:50:12.364Z,14.90
2023-07-17T23:52:41.816Z,14.80
2023-07-17T23:55:11.674Z,14.90
2023-07-17T23:57:39.855Z,14.80
